Terminal Aerodrome Forecast
Issued by NWS

Home | Current Version | Previous Version | Text Only | Print | Product List | Glossary On
Versions: 1 2 3 4 5 6 7 8 9 10 11 12 13 14 15 16 17
000
FTAK31 PAJN 250200 AAB
TAFAWG
TAF AMD
PAWG 250200Z 2502/2524 VRB04KT 4SM -RA FEW005 SCT015 OVC025
      TEMPO 2502/2506 00000KT 1/2SM -RA FG SCT005 BKN015
     FM250700 VRB03KT 6SM BR FEW003 BKN015 OVC025
     FM251000 00000KT 2SM BR BKN001
     FM251600 VRB04KT 6SM BCFG SCT001 SCT006 BKN025
     FM252100 VRB04KT P6SM BKN025
      AMD LTD TO CLD VIS AND WIND 2506/2515=

USA.gov is the U.S. government's official web portal to all federal, state and local government web resources and services.